createdAt,value
2023-02-28T00:00:52.676Z,10.45
2023-02-28T00:03:22.728Z,16.13
2023-02-28T00:05:52.807Z,8.35
2023-02-28T00:08:22.836Z,12.32
2023-02-28T00:10:52.895Z,11.00
2023-02-28T00:13:23.056Z,10.55
2023-02-28T00:16:24.121Z,8.52
2023-02-28T00:18:53.208Z,9.65
2023-02-28T00:21:22.209Z,12.95
2023-02-28T00:23:50.480Z,10.10
2023-02-28T00:26:21.287Z,11.38
2023-02-28T00:28:53.997Z,12.18
2023-02-28T00:31:24.513Z,10.93
2023-02-28T00:33:54.577Z,10.38
2023-02-28T00:36:24.812Z,12.68
2023-02-28T00:38:54.847Z,10.02
2023-02-28T00:41:24.933Z,12.35
2023-02-28T00:43:54.986Z,9.20
2023-02-28T00:46:25.267Z,12.63
2023-02-28T00:48:55.381Z,7.88
2023-02-28T00:51:25.522Z,9.35
2023-02-28T00:53:55.644Z,9.88
2023-02-28T00:56:25.635Z,9.63
2023-02-28T00:58:55.607Z,9.90
2023-02-28T01:01:25.728Z,9.80
2023-02-28T01:03:55.776Z,11.07
2023-02-28T01:06:25.937Z,9.13
2023-02-28T01:08:54.258Z,12.15
2023-02-28T01:11:22.703Z,11.38
2023-02-28T01:13:51.380Z,9.77
2023-02-28T01:16:19.932Z,10.43
2023-02-28T01:18:47.954Z,9.45
2023-02-28T01:21:22.159Z,9.40
2023-02-28T01:23:52.548Z,10.82
2023-02-28T01:26:25.155Z,10.07
2023-02-28T01:28:55.303Z,10.95
2023-02-28T01:31:26.967Z,9.68
2023-02-28T01:33:57.290Z,14.82
2023-02-28T01:36:27.772Z,12.13
2023-02-28T01:38:58.166Z,11.57
2023-02-28T01:41:34.538Z,10.48
2023-02-28T01:44:56.423Z,12.07
2023-02-28T01:47:39.556Z,14.03
2023-02-28T01:50:21.683Z,8.40
2023-02-28T01:52:56.283Z,12.73
2023-02-28T01:55:29.657Z,11.75
2023-02-28T01:58:06.726Z,10.50
2023-02-28T02:00:35.927Z,10.48
2023-02-28T02:03:17.284Z,13.45
2023-02-28T02:05:48.646Z,13.05
2023-02-28T02:08:29.138Z,11.48
2023-02-28T02:11:03.680Z,13.23
2023-02-28T02:14:27.359Z,11.85
2023-02-28T02:17:22.100Z,13.48
2023-02-28T02:21:15.975Z,10.95
2023-02-28T02:24:20.880Z,8.77
2023-02-28T02:27:20.780Z,10.93
2023-02-28T02:33:44.070Z,9.73
2023-02-28T02:36:44.563Z,9.40
2023-02-28T02:39:35.036Z,13.10
2023-02-28T02:43:02.248Z,11.85
2023-02-28T02:46:11.215Z,11.25
2023-02-28T02:48:45.533Z,9.95
2023-02-28T02:51:24.163Z,13.77
2023-02-28T02:54:09.817Z,11.13
2023-02-28T02:56:48.156Z,11.23
2023-02-28T02:59:25.038Z,12.25
2023-02-28T03:02:04.814Z,9.40
2023-02-28T03:04:53.737Z,13.82
2023-02-28T03:07:23.740Z,13.15
2023-02-28T03:09:57.779Z,10.40
2023-02-28T03:13:04.968Z,11.20
2023-02-28T03:16:24.323Z,12.57
2023-02-28T03:19:32.205Z,13.55
2023-02-28T03:22:33.404Z,14.75
2023-02-28T03:25:27.575Z,18.42
2023-02-28T03:28:24.233Z,14.68
2023-02-28T03:31:31.565Z,13.23
2023-02-28T03:34:27.708Z,11.32
2023-02-28T03:37:13.450Z,11.40
2023-02-28T03:40:07.854Z,12.68
2023-02-28T03:42:46.255Z,14.50
2023-02-28T03:45:31.324Z,14.32
2023-02-28T03:48:50.106Z,14.05
2023-02-28T03:51:28.703Z,13.75
2023-02-28T03:54:14.139Z,11.90
2023-02-28T03:57:07.220Z,12.10
2023-02-28T03:59:55.457Z,12.30
2023-02-28T04:02:25.905Z,14.00
2023-02-28T04:04:56.055Z,11.07
2023-02-28T04:07:31.569Z,14.88
2023-02-28T04:10:01.692Z,10.38
2023-02-28T04:12:31.833Z,14.65
2023-02-28T04:15:01.966Z,13.48
2023-02-28T04:17:32.009Z,12.35
2023-02-28T04:20:02.046Z,10.90
2023-02-28T04:22:32.033Z,10.63
2023-02-28T04:25:02.066Z,10.85
2023-02-28T04:27:32.830Z,9.85
2023-02-28T04:30:03.501Z,15.38
2023-02-28T04:32:32.102Z,12.50
2023-02-28T04:35:02.220Z,14.82
2023-02-28T04:37:35.847Z,14.35
2023-02-28T04:40:07.106Z,11.95
2023-02-28T04:42:37.169Z,11.73
2023-02-28T04:45:11.216Z,13.98
2023-02-28T04:47:41.218Z,11.50
2023-02-28T04:50:11.837Z,12.68
2023-02-28T04:52:41.858Z,14.40
2023-02-28T04:55:11.905Z,11.68
2023-02-28T04:57:43.616Z,11.30
2023-02-28T05:00:16.342Z,10.85
2023-02-28T05:02:46.405Z,15.13
2023-02-28T05:05:19.157Z,16.40
2023-02-28T05:07:49.223Z,12.38
2023-02-28T05:10:19.550Z,11.50
2023-02-28T05:12:49.670Z,14.73
2023-02-28T05:15:19.711Z,11.57
2023-02-28T05:17:49.727Z,13.30
2023-02-28T05:20:19.879Z,15.60
2023-02-28T05:22:51.499Z,13.57
2023-02-28T05:25:23.755Z,14.88
2023-02-28T05:27:53.800Z,17.10
2023-02-28T05:30:23.859Z,16.42
2023-02-28T05:32:53.909Z,12.27
2023-02-28T05:35:24.890Z,13.73
2023-02-28T05:37:54.950Z,16.05
2023-02-28T05:40:25.081Z,14.65
2023-02-28T05:42:55.108Z,11.70
2023-02-28T05:45:25.208Z,11.82
2023-02-28T05:47:56.932Z,16.20
2023-02-28T05:50:26.928Z,12.45
2023-02-28T05:52:56.968Z,14.60
2023-02-28T05:55:27.188Z,18.42
2023-02-28T05:57:57.605Z,12.23
2023-02-28T06:00:27.869Z,13.18
2023-02-28T06:03:01.069Z,14.43
2023-02-28T06:05:31.254Z,15.07
2023-02-28T06:08:01.349Z,14.27
2023-02-28T06:10:29.882Z,12.93
2023-02-28T06:13:03.505Z,17.08
2023-02-28T06:15:34.052Z,15.95
2023-02-28T06:18:04.321Z,14.27
2023-02-28T06:20:34.474Z,13.65
2023-02-28T06:23:04.694Z,18.98
2023-02-28T06:25:34.773Z,17.90
2023-02-28T06:28:05.277Z,14.30
2023-02-28T06:30:35.438Z,14.75
2023-02-28T06:33:05.700Z,18.33
2023-02-28T06:35:36.256Z,17.08
2023-02-28T06:38:06.351Z,19.80
2023-02-28T06:40:36.943Z,17.92
2023-02-28T06:43:06.989Z,18.45
2023-02-28T06:45:37.132Z,17.83
2023-02-28T06:48:07.276Z,19.33
2023-02-28T06:50:38.385Z,20.33
2023-02-28T06:53:08.378Z,22.50
2023-02-28T06:55:40.791Z,21.05
2023-02-28T06:58:16.936Z,17.92
2023-02-28T07:00:53.421Z,18.60
2023-02-28T07:03:24.197Z,19.50
2023-02-28T07:05:54.354Z,17.38
2023-02-28T07:08:26.461Z,21.02
2023-02-28T07:10:57.948Z,18.27
2023-02-28T07:13:28.129Z,19.40
2023-02-28T07:16:05.764Z,17.85
2023-02-28T07:18:38.173Z,21.43
2023-02-28T07:21:11.765Z,19.02
2023-02-28T07:23:42.807Z,16.58
2023-02-28T07:26:19.265Z,16.98
2023-02-28T07:28:51.142Z,16.50
2023-02-28T07:31:21.331Z,15.60
2023-02-28T07:33:51.385Z,17.67
2023-02-28T07:36:21.409Z,21.58
2023-02-28T07:38:51.656Z,17.65
2023-02-28T07:41:25.771Z,17.02
2023-02-28T07:44:00.625Z,21.23
2023-02-28T07:46:36.659Z,15.40
2023-02-28T07:49:07.306Z,16.85
2023-02-28T07:51:37.421Z,12.10
2023-02-28T07:54:07.500Z,16.92
2023-02-28T07:56:37.525Z,13.13
2023-02-28T07:59:07.544Z,12.30
2023-02-28T08:01:37.605Z,11.35
2023-02-28T08:04:07.649Z,9.45
2023-02-28T08:06:37.683Z,9.82
2023-02-28T08:09:07.773Z,11.05
2023-02-28T08:11:37.335Z,10.13
2023-02-28T08:14:04.603Z,8.48
2023-02-28T08:16:33.008Z,11.10
2023-02-28T08:19:01.450Z,9.85
2023-02-28T08:21:30.262Z,11.25
2023-02-28T08:23:58.237Z,10.45
2023-02-28T08:26:27.217Z,11.90
2023-02-28T08:28:56.834Z,11.30
2023-02-28T08:31:26.499Z,13.18
2023-02-28T08:33:59.906Z,15.20
2023-02-28T08:36:30.075Z,14.32
2023-02-28T08:39:00.744Z,14.07
2023-02-28T08:41:31.499Z,17.55
2023-02-28T08:44:02.519Z,10.65
2023-02-28T08:46:32.554Z,8.48
2023-02-28T08:49:02.943Z,8.77
2023-02-28T08:51:33.383Z,11.05
2023-02-28T08:54:03.578Z,9.20
2023-02-28T08:56:33.635Z,9.20
2023-02-28T08:59:03.664Z,8.25
2023-02-28T09:01:33.885Z,9.40
2023-02-28T09:04:04.373Z,10.57
2023-02-28T09:06:34.430Z,7.25
2023-02-28T09:09:07.412Z,7.50
2023-02-28T09:11:38.314Z,10.00
2023-02-28T09:14:08.833Z,9.68
2023-02-28T09:16:38.921Z,7.97
2023-02-28T09:19:13.801Z,6.95
2023-02-28T09:21:43.911Z,7.97
2023-02-28T09:24:16.149Z,12.07
2023-02-28T09:27:01.727Z,5.70
2023-02-28T09:29:36.218Z,7.43
2023-02-28T09:32:06.966Z,6.93
2023-02-28T09:34:38.118Z,6.28
2023-02-28T09:37:09.138Z,7.47
2023-02-28T09:39:36.647Z,6.05
2023-02-28T09:42:23.560Z,9.10
2023-02-28T09:44:54.737Z,5.57
2023-02-28T09:47:43.330Z,6.53
2023-02-28T09:50:43.756Z,4.82
2023-02-28T09:53:45.793Z,4.35
2023-02-28T09:56:32.946Z,6.15
2023-02-28T09:59:17.142Z,4.90
2023-02-28T10:02:23.232Z,7.10
2023-02-28T10:05:15.683Z,4.82
2023-02-28T10:08:22.418Z,5.63
2023-02-28T10:11:05.418Z,5.47
2023-02-28T10:13:51.515Z,5.07
2023-02-28T10:16:36.164Z,3.70
2023-02-28T10:19:44.550Z,6.70
2023-02-28T10:22:34.130Z,4.15
2023-02-28T10:25:22.891Z,5.25
2023-02-28T10:28:12.182Z,6.38
2023-02-28T10:33:36.850Z,4.00
2023-02-28T10:36:11.381Z,5.78
2023-02-28T10:38:41.900Z,5.07
2023-02-28T10:41:37.432Z,7.05
2023-02-28T10:44:24.932Z,5.07
2023-02-28T10:46:54.964Z,3.85
2023-02-28T10:49:31.650Z,3.15
2023-02-28T10:52:02.247Z,4.22
2023-02-28T10:54:38.889Z,3.70
2023-02-28T10:57:26.976Z,5.28
2023-02-28T11:00:20.059Z,6.28
2023-02-28T11:02:50.406Z,4.75
2023-02-28T11:05:32.438Z,5.20
2023-02-28T11:08:19.370Z,5.90
2023-02-28T11:11:01.867Z,3.90
2023-02-28T11:13:41.171Z,8.23
2023-02-28T11:16:15.355Z,8.70
2023-02-28T11:18:56.608Z,4.03
2023-02-28T11:21:41.390Z,4.72
2023-02-28T11:24:42.691Z,5.45
2023-02-28T11:27:49.244Z,7.55
2023-02-28T11:30:42.218Z,4.55
2023-02-28T11:33:42.746Z,7.57
2023-02-28T11:36:33.052Z,4.78
2023-02-28T11:39:13.687Z,4.28
2023-02-28T11:45:41.635Z,4.75
2023-02-28T11:48:29.019Z,5.43
2023-02-28T11:51:53.171Z,3.95
2023-02-28T11:55:23.779Z,6.47
2023-02-28T11:58:54.932Z,6.53
2023-02-28T12:01:48.130Z,4.47
2023-02-28T12:05:07.871Z,7.25
2023-02-28T12:07:44.285Z,7.18
2023-02-28T12:10:32.923Z,6.93
2023-02-28T12:13:50.602Z,8.45
2023-02-28T12:16:45.850Z,5.80
2023-02-28T12:19:53.745Z,4.72
2023-02-28T12:22:31.532Z,5.40
2023-02-28T12:25:45.847Z,5.55
2023-02-28T12:28:27.403Z,8.25
2023-02-28T12:31:17.010Z,6.55
2023-02-28T12:33:58.404Z,7.40
2023-02-28T12:36:29.771Z,5.75
2023-02-28T12:39:24.124Z,5.65
2023-02-28T12:42:29.564Z,8.13
2023-02-28T12:45:21.765Z,5.15
2023-02-28T12:48:06.948Z,6.43
2023-02-28T12:50:37.195Z,6.72
2023-02-28T12:53:29.945Z,6.43
2023-02-28T12:56:31.816Z,7.63
2023-02-28T12:59:22.923Z,4.97
2023-02-28T13:02:04.730Z,6.20
2023-02-28T13:05:42.544Z,13.93
2023-02-28T13:09:10.175Z,9.77
2023-02-28T13:11:50.348Z,6.68
2023-02-28T13:14:31.556Z,6.72
2023-02-28T13:17:09.946Z,5.97
2023-02-28T13:19:53.215Z,6.55
2023-02-28T13:22:48.174Z,6.80
2023-02-28T13:25:23.917Z,7.85
2023-02-28T13:27:57.977Z,5.47
2023-02-28T13:30:53.897Z,6.35
2023-02-28T13:33:35.268Z,6.88
2023-02-28T13:36:20.442Z,7.95
2023-02-28T13:38:56.516Z,5.70
2023-02-28T13:41:32.809Z,6.00
2023-02-28T13:45:04.301Z,5.30
2023-02-28T13:47:57.000Z,9.95
2023-02-28T13:50:26.884Z,8.10
2023-02-28T13:53:14.808Z,7.35
2023-02-28T13:56:42.750Z,8.45
2023-02-28T13:59:52.943Z,6.63
2023-02-28T14:02:55.082Z,4.55
2023-02-28T14:05:27.839Z,5.07
2023-02-28T14:08:16.329Z,6.38
2023-02-28T14:11:10.351Z,5.80
2023-02-28T14:13:48.294Z,6.53
2023-02-28T14:16:28.267Z,5.28
2023-02-28T14:19:33.979Z,6.18
2023-02-28T14:23:16.370Z,6.78
2023-02-28T14:26:32.044Z,4.97
2023-02-28T14:30:08.008Z,7.10
2023-02-28T14:33:24.629Z,6.00
2023-02-28T14:36:08.176Z,4.75
2023-02-28T14:38:57.512Z,7.20
2023-02-28T14:41:42.837Z,8.18
2023-02-28T14:44:23.900Z,6.55
2023-02-28T14:47:07.495Z,7.30
2023-02-28T14:49:47.655Z,6.38
2023-02-28T14:52:34.558Z,5.68
2023-02-28T14:55:17.937Z,6.78
2023-02-28T14:58:07.725Z,11.23
2023-02-28T15:03:36.307Z,11.02
2023-02-28T15:06:19.093Z,6.10
2023-02-28T15:08:49.133Z,6.95
2023-02-28T15:11:23.365Z,8.23
2023-02-28T15:13:59.093Z,5.70
2023-02-28T15:16:41.384Z,6.65
2023-02-28T15:19:35.566Z,6.43
2023-02-28T15:22:15.723Z,8.15
2023-02-28T15:24:53.521Z,9.13
2023-02-28T15:27:35.134Z,7.05
2023-02-28T15:30:19.726Z,7.20
2023-02-28T15:33:30.560Z,7.70
2023-02-28T15:36:34.402Z,6.88
2023-02-28T15:39:15.545Z,9.55
2023-02-28T15:41:46.121Z,7.20
2023-02-28T15:44:36.951Z,6.82
2023-02-28T15:47:22.553Z,8.25
2023-02-28T15:50:03.268Z,7.65
2023-02-28T15:52:45.139Z,8.45
2023-02-28T15:55:24.792Z,7.60
2023-02-28T15:58:00.688Z,8.75
2023-02-28T16:00:33.930Z,7.13
2023-02-28T16:03:39.878Z,7.80
2023-02-28T16:07:05.821Z,10.88
2023-02-28T16:09:35.825Z,8.80
2023-02-28T16:12:08.290Z,10.65
2023-02-28T16:14:39.721Z,9.57
2023-02-28T16:17:27.950Z,8.35
2023-02-28T16:19:57.162Z,8.00
2023-02-28T16:22:27.390Z,7.63
2023-02-28T16:24:55.420Z,7.28
2023-02-28T16:27:38.331Z,11.52
2023-02-28T16:30:23.504Z,11.93
2023-02-28T16:32:57.019Z,7.63
2023-02-28T16:35:27.114Z,9.00
2023-02-28T16:37:57.222Z,10.65
2023-02-28T16:40:29.697Z,10.10
2023-02-28T16:43:08.265Z,7.97
2023-02-28T16:45:38.450Z,11.50
2023-02-28T16:48:17.215Z,10.38
2023-02-28T16:50:45.904Z,9.50
2023-02-28T16:53:16.033Z,10.05
2023-02-28T16:55:46.483Z,9.70
2023-02-28T16:58:18.427Z,11.65
2023-02-28T17:00:48.631Z,10.82
2023-02-28T17:03:33.563Z,7.28
2023-02-28T17:06:05.660Z,10.07
2023-02-28T17:08:35.964Z,8.98
2023-02-28T17:11:06.099Z,6.50
2023-02-28T17:13:36.121Z,8.60
2023-02-28T17:16:07.391Z,8.73
2023-02-28T17:18:37.624Z,7.63
2023-02-28T17:21:18.094Z,9.60
2023-02-28T17:23:48.168Z,8.50
2023-02-28T17:26:22.350Z,11.20
2023-02-28T17:28:56.855Z,9.93
2023-02-28T17:31:28.692Z,9.95
2023-02-28T17:33:58.802Z,8.23
2023-02-28T17:36:29.353Z,10.18
2023-02-28T17:38:59.611Z,14.85
2023-02-28T17:41:31.398Z,10.40
2023-02-28T17:44:01.127Z,12.23
2023-02-28T17:46:29.936Z,10.23
2023-02-28T17:48:58.056Z,11.75
2023-02-28T17:51:26.830Z,15.73
2023-02-28T17:53:54.919Z,14.57
2023-02-28T17:56:27.271Z,16.10
2023-02-28T17:58:58.397Z,12.90
2023-02-28T18:01:29.161Z,14.70
2023-02-28T18:03:59.252Z,16.92
2023-02-28T18:06:48.321Z,16.65
2023-02-28T18:09:23.749Z,13.52
2023-02-28T18:11:57.096Z,13.60
2023-02-28T18:14:28.119Z,14.85
2023-02-28T18:16:58.359Z,17.63
2023-02-28T18:19:28.469Z,15.55
2023-02-28T18:21:58.732Z,13.63
2023-02-28T18:24:28.771Z,12.27
2023-02-28T18:26:57.220Z,13.57
2023-02-28T18:29:28.648Z,14.95
2023-02-28T18:31:57.594Z,14.65
2023-02-28T18:34:26.549Z,16.45
2023-02-28T18:36:54.076Z,15.80
2023-02-28T18:39:22.484Z,19.63
2023-02-28T18:41:50.660Z,18.25
2023-02-28T18:44:20.975Z,23.30
2023-02-28T18:46:51.354Z,22.45
2023-02-28T18:49:21.749Z,21.75
2023-02-28T18:51:52.958Z,20.63
2023-02-28T18:54:22.997Z,29.83
2023-02-28T18:56:54.076Z,32.45
2023-02-28T18:59:24.171Z,85.10
2023-02-28T19:01:54.249Z,62.92
2023-02-28T19:04:24.545Z,47.88
2023-02-28T19:06:54.571Z,41.28
2023-02-28T19:09:24.740Z,36.15
2023-02-28T19:11:54.803Z,28.65
2023-02-28T19:14:24.841Z,29.17
2023-02-28T19:16:54.923Z,25.80
2023-02-28T19:19:24.980Z,32.17
2023-02-28T19:21:56.254Z,32.20
2023-02-28T19:24:26.352Z,28.65
2023-02-28T19:26:56.421Z,27.17
2023-02-28T19:29:27.239Z,29.55
2023-02-28T19:31:57.451Z,26.45
2023-02-28T19:34:27.641Z,29.55
2023-02-28T19:36:57.750Z,30.73
2023-02-28T19:39:27.920Z,31.83
2023-02-28T19:41:57.963Z,32.70
2023-02-28T19:44:28.250Z,26.95
2023-02-28T19:46:58.323Z,32.25
2023-02-28T19:49:28.430Z,26.13
2023-02-28T19:51:59.458Z,26.75
2023-02-28T19:54:29.657Z,25.33
2023-02-28T19:56:59.820Z,24.90
2023-02-28T19:59:39.245Z,30.08
2023-02-28T20:02:19.089Z,28.55
2023-02-28T20:04:51.224Z,29.17
2023-02-28T20:07:21.609Z,32.00
2023-02-28T20:09:51.951Z,26.70
2023-02-28T20:12:24.329Z,28.80
2023-02-28T20:14:58.223Z,27.98
2023-02-28T20:17:28.371Z,30.25
2023-02-28T20:19:58.429Z,31.02
2023-02-28T20:22:28.476Z,42.35
2023-02-28T20:24:58.530Z,34.53
2023-02-28T20:27:29.496Z,33.70
2023-02-28T20:29:58.772Z,32.83
2023-02-28T20:32:29.021Z,27.92
2023-02-28T20:34:59.206Z,24.90
2023-02-28T20:37:29.289Z,29.23
2023-02-28T20:39:59.351Z,29.90
2023-02-28T20:42:29.369Z,30.40
2023-02-28T20:44:59.625Z,33.10
2023-02-28T20:47:29.727Z,27.00
2023-02-28T20:49:59.766Z,31.33
2023-02-28T20:52:29.441Z,31.65
2023-02-28T20:54:59.509Z,34.08
2023-02-28T20:57:30.808Z,26.92
2023-02-28T21:00:00.188Z,28.75
2023-02-28T21:02:31.260Z,34.80
2023-02-28T21:05:00.707Z,36.13
2023-02-28T21:07:30.869Z,33.95
2023-02-28T21:10:00.896Z,30.95
2023-02-28T21:12:31.016Z,34.72
2023-02-28T21:15:01.094Z,37.38
2023-02-28T21:17:30.941Z,35.30
2023-02-28T21:20:00.967Z,31.23
2023-02-28T21:22:30.989Z,46.58
2023-02-28T21:24:59.425Z,41.08
2023-02-28T21:27:28.030Z,40.05
2023-02-28T21:29:56.264Z,39.05
2023-02-28T21:32:24.710Z,35.80
2023-02-28T21:34:54.788Z,41.25
2023-02-28T21:37:24.835Z,43.50
2023-02-28T21:39:53.037Z,48.28
2023-02-28T21:42:21.557Z,40.35
2023-02-28T21:44:50.386Z,38.60
2023-02-28T21:47:18.140Z,37.22
2023-02-28T21:49:46.616Z,36.67
2023-02-28T21:52:15.076Z,47.25
2023-02-28T21:54:42.464Z,45.65
2023-02-28T21:57:14.256Z,40.78
2023-02-28T21:59:44.752Z,41.45
2023-02-28T22:02:14.842Z,42.88
2023-02-28T22:04:44.910Z,35.28
2023-02-28T22:07:15.861Z,37.40
2023-02-28T22:09:45.916Z,40.78
2023-02-28T22:12:16.492Z,44.72
2023-02-28T22:14:46.604Z,40.45
2023-02-28T22:17:16.696Z,46.58
2023-02-28T22:19:46.843Z,38.05
2023-02-28T22:22:16.906Z,44.95
2023-02-28T22:24:46.973Z,45.35
2023-02-28T22:27:17.081Z,41.50
2023-02-28T22:29:48.734Z,42.35
2023-02-28T22:32:18.893Z,49.95
2023-02-28T22:34:52.835Z,41.10
2023-02-28T22:37:22.916Z,49.05
2023-02-28T22:39:52.986Z,49.92
2023-02-28T22:42:23.322Z,44.45
2023-02-28T22:44:53.375Z,42.42
2023-02-28T22:47:26.552Z,52.00
2023-02-28T22:49:56.586Z,42.03
2023-02-28T22:52:26.603Z,48.83
2023-02-28T22:54:56.728Z,49.95
2023-02-28T22:57:26.812Z,43.92
2023-02-28T22:59:56.867Z,40.70
2023-02-28T23:02:27.284Z,50.50
2023-02-28T23:04:57.369Z,46.88
2023-02-28T23:07:27.884Z,40.10
2023-02-28T23:09:57.945Z,53.30
2023-02-28T23:12:29.243Z,50.08
2023-02-28T23:14:59.892Z,52.13
2023-02-28T23:17:32.340Z,48.45
2023-02-28T23:20:02.443Z,59.70
2023-02-28T23:22:32.706Z,49.67
2023-02-28T23:25:02.874Z,48.08
2023-02-28T23:27:33.683Z,51.45
2023-02-28T23:30:04.452Z,50.03
2023-02-28T23:32:32.874Z,56.20
2023-02-28T23:35:03.015Z,51.38
2023-02-28T23:37:33.269Z,52.53
2023-02-28T23:40:06.136Z,48.95
2023-02-28T23:42:36.427Z,50.38
2023-02-28T23:45:07.469Z,64.00
2023-02-28T23:47:34.847Z,49.42
2023-02-28T23:50:04.023Z,55.65
2023-02-28T23:52:31.432Z,58.08
2023-02-28T23:55:00.941Z,54.83
2023-02-28T23:57:29.756Z,58.13
2023-02-28T23:59:59.772Z,51.42
